Дата Время Давление Темп. Влажн. Скор.ветра Напр.ветра Макс.ветер Осадки/час Осадки
27.11.22 01:00 756.8 -4.8 91.8 1.3 97 5.1 0 0
27.11.22 00:00 756.7 -4.9 91.6 1.6 120 5 0 0.6
26.11.22 23:00 756.5 -4.9 91.3 1.7 85 5.5 0 0.6
26.11.22 22:00 756.4 -4.9 91.3 1.8 96 4.8 0 0.6
26.11.22 21:00 756.4 -5 91.4 1.9 101 5.6 0 0.6
26.11.22 20:00 756.4 -4.8 91.2 1.8 106 4.3 0 0.6
26.11.22 19:00 756.4 -4.8 90.9 1.7 109 6.2 0 0.6
26.11.22 18:00 756.4 -4.6 90.5 2.6 113 5.7 0 0.6
26.11.22 17:00 756.2 -4.4 90.2 2.7 114 5.5 0 0.6
26.11.22 16:00 756.1 -4.3 89.6 1.8 98 3.8 0 0.6
26.11.22 15:00 756.1 -4.1 88.6 1.7 105 6.2 0 0.6
26.11.22 14:00 756 -4 88.3 2.2 103 5.4 0 0.6
26.11.22 13:00 755.9 -4 88.7 1.7 99 5.6 0 0.6
26.11.22 12:00 755.9 -4 89.5 1.5 116 5.7 0 0.6
26.11.22 11:00 755.8 -4.2 90.1 2.6 123 6.2 0 0.6
26.11.22 10:00 755.7 -4.3 91 1.3 115 4.2 0.2 0.6
26.11.22 09:00 755.5 -4.7 91.7 1.6 117 5.4 0 0.4
26.11.22 08:00 755.1 -4.7 91.6 2 115 5.2 0 0.4
26.11.22 07:00 755 -4.7 91.5 1.7 122 5.5 0 0.4
26.11.22 06:00 754.8 -4.6 91.2 1.4 102 5.2 0 0.4
26.11.22 05:00 754.5 -4.5 91.1 1.4 98 5.4 0 0.4
26.11.22 04:00 754.6 -4.5 91.1 1.9 114 4.6 0.2 0.4
26.11.22 03:00 754.4 -4.5 91.5 2.1 110 5.2 0 0.2
26.11.22 02:00 754.3 -4.5 91.6 1.1 51 4.8 0 0.2